createdAt,value
2018-05-16T00:02:05.810Z,7.33
2018-05-16T00:04:33.283Z,7.25
2018-05-16T00:07:01.545Z,7.30
2018-05-16T00:09:29.011Z,7.20
2018-05-16T00:11:56.456Z,6.80
2018-05-16T00:14:24.690Z,6.40
2018-05-16T00:16:52.141Z,6.70
2018-05-16T00:19:19.591Z,6.90
2018-05-16T00:21:47.835Z,7.00
2018-05-16T00:24:15.288Z,7.00
2018-05-16T00:26:42.774Z,6.55
2018-05-16T00:29:10.224Z,7.10
2018-05-16T00:31:37.722Z,7.18
2018-05-16T00:34:05.191Z,7.20
2018-05-16T00:36:32.635Z,7.10
2018-05-16T00:39:00.135Z,7.45
2018-05-16T00:41:27.604Z,7.50
2018-05-16T00:43:55.079Z,7.35
2018-05-16T00:46:22.535Z,6.90
2018-05-16T00:48:49.981Z,6.80
2018-05-16T00:51:29.288Z,6.87
2018-05-16T00:53:57.531Z,7.10
2018-05-16T00:56:25.003Z,6.68
2018-05-16T00:58:52.460Z,7.18
2018-05-16T01:01:19.920Z,6.85
2018-05-16T01:03:47.372Z,6.90
2018-05-16T01:06:14.836Z,6.90
2018-05-16T01:08:42.328Z,7.32
2018-05-16T01:11:09.787Z,7.05
2018-05-16T01:13:37.346Z,6.80
2018-05-16T01:16:05.580Z,6.70
2018-05-16T01:18:33.027Z,7.07
2018-05-16T01:21:00.496Z,6.87
2018-05-16T01:23:27.953Z,6.50
2018-05-16T01:25:55.418Z,6.60
2018-05-16T01:28:22.880Z,6.87
2018-05-16T01:30:50.337Z,6.90
2018-05-16T01:33:18.585Z,7.30
2018-05-16T01:35:46.041Z,7.07
2018-05-16T01:38:13.515Z,6.95
2018-05-16T01:40:40.992Z,7.18
2018-05-16T01:43:08.445Z,7.50
2018-05-16T01:45:35.913Z,6.85
2018-05-16T01:48:03.382Z,7.35
2018-05-16T01:50:30.855Z,7.10
2018-05-16T01:52:58.324Z,7.03
2018-05-16T01:55:25.778Z,7.75
2018-05-16T01:57:53.259Z,8.43
2018-05-16T02:00:20.728Z,7.95
2018-05-16T02:02:48.176Z,8.00
2018-05-16T02:05:15.644Z,7.90
2018-05-16T02:07:43.105Z,8.10
2018-05-16T02:10:10.570Z,7.78
2018-05-16T02:12:38.805Z,8.02
2018-05-16T02:15:06.260Z,8.50
2018-05-16T02:17:33.737Z,8.45
2018-05-16T02:20:01.202Z,8.15
2018-05-16T02:22:28.667Z,8.50
2018-05-16T02:24:56.123Z,7.82
2018-05-16T02:27:23.599Z,9.07
2018-05-16T02:29:51.083Z,9.30
2018-05-16T02:32:18.562Z,8.60
2018-05-16T02:34:46.017Z,8.57
2018-05-16T02:37:13.476Z,8.90
2018-05-16T02:39:40.937Z,9.20
2018-05-16T02:42:08.384Z,9.27
2018-05-16T02:44:36.626Z,9.00
2018-05-16T02:47:04.840Z,9.35
2018-05-16T02:49:32.301Z,9.73
2018-05-16T02:51:59.783Z,10.20
2018-05-16T02:54:27.294Z,9.30
2018-05-16T02:56:54.711Z,8.90
2018-05-16T02:59:22.167Z,9.23
2018-05-16T03:01:49.632Z,9.00
2018-05-16T03:04:17.093Z,9.60
2018-05-16T03:06:44.549Z,9.60
2018-05-16T03:09:12.005Z,9.55
2018-05-16T03:11:39.491Z,9.80
2018-05-16T03:14:06.972Z,9.30
2018-05-16T03:16:34.439Z,10.00
2018-05-16T03:19:01.911Z,9.88
2018-05-16T03:21:29.400Z,10.20
2018-05-16T03:23:57.612Z,9.93
2018-05-16T03:26:25.862Z,9.60
2018-05-16T03:28:53.325Z,9.90
2018-05-16T03:31:20.806Z,9.93
2018-05-16T03:33:48.270Z,9.93
2018-05-16T03:36:16.492Z,10.10
2018-05-16T03:38:43.953Z,10.20
2018-05-16T03:41:11.416Z,9.63
2018-05-16T03:43:38.895Z,10.05
2018-05-16T03:46:06.382Z,10.93
2018-05-16T03:48:34.623Z,10.80
2018-05-16T03:51:02.084Z,10.52
2018-05-16T03:53:29.552Z,10.68
2018-05-16T03:55:57.013Z,11.07
2018-05-16T03:58:36.299Z,11.00
2018-05-16T04:01:15.699Z,10.23
2018-05-16T04:03:55.303Z,10.60
2018-05-16T04:06:23.518Z,11.00
2018-05-16T04:08:51.748Z,11.23
2018-05-16T04:11:19.207Z,11.57
2018-05-16T04:13:46.660Z,11.85
2018-05-16T04:16:14.121Z,11.90
2018-05-16T04:18:41.592Z,11.45
2018-05-16T04:21:09.058Z,11.67
2018-05-16T04:23:37.823Z,11.32
2018-05-16T04:26:05.298Z,11.75
2018-05-16T04:28:32.766Z,11.30
2018-05-16T04:31:00.279Z,11.70
2018-05-16T04:33:28.488Z,11.70
2018-05-16T04:35:55.961Z,11.30
2018-05-16T04:38:23.439Z,11.40
2018-05-16T04:40:50.909Z,11.70
2018-05-16T04:43:18.377Z,11.10
2018-05-16T04:45:45.836Z,11.77
2018-05-16T04:48:13.308Z,12.75
2018-05-16T04:50:40.779Z,12.52
2018-05-16T04:53:08.231Z,13.98
2018-05-16T04:55:35.694Z,13.77
2018-05-16T04:58:03.195Z,13.98
2018-05-16T05:00:30.666Z,14.10
2018-05-16T05:02:58.113Z,13.60
2018-05-16T05:05:25.588Z,12.80
2018-05-16T05:07:53.078Z,11.77
2018-05-16T05:10:20.574Z,11.30
2018-05-16T05:12:48.043Z,11.33
2018-05-16T05:15:15.552Z,11.93
2018-05-16T05:17:42.995Z,12.30
2018-05-16T05:20:11.220Z,11.80
2018-05-16T05:22:38.710Z,11.85
2018-05-16T05:25:06.166Z,12.88
2018-05-16T05:27:33.642Z,12.52
2018-05-16T05:30:01.110Z,12.57
2018-05-16T05:32:28.592Z,11.80
2018-05-16T05:34:56.066Z,12.20
2018-05-16T05:37:23.552Z,12.23
2018-05-16T05:39:51.019Z,11.60
2018-05-16T05:42:18.498Z,11.48
2018-05-16T05:44:45.983Z,11.32
2018-05-16T05:47:14.197Z,10.90
2018-05-16T05:49:41.679Z,11.73
2018-05-16T05:52:09.158Z,11.55
2018-05-16T05:54:36.626Z,11.90
2018-05-16T05:57:04.113Z,11.57
2018-05-16T05:59:31.605Z,11.57
2018-05-16T06:01:59.082Z,12.02
2018-05-16T06:04:27.320Z,12.30
2018-05-16T06:06:54.776Z,11.73
2018-05-16T06:09:22.240Z,12.20
2018-05-16T06:11:49.706Z,11.80
2018-05-16T06:14:19.771Z,12.57
2018-05-16T06:16:47.225Z,11.40
2018-05-16T06:19:14.704Z,11.73
2018-05-16T06:21:42.178Z,10.50
2018-05-16T06:24:09.638Z,10.55
2018-05-16T06:26:37.118Z,10.55
2018-05-16T06:29:04.599Z,10.30
2018-05-16T06:31:32.077Z,11.07
2018-05-16T06:33:59.542Z,10.77
2018-05-16T06:36:27.026Z,11.20
2018-05-16T06:38:54.495Z,11.63
2018-05-16T06:41:21.952Z,11.55
2018-05-16T06:43:49.411Z,12.25
2018-05-16T06:46:16.918Z,12.10
2018-05-16T06:48:45.170Z,11.88
2018-05-16T06:51:12.645Z,12.10
2018-05-16T06:53:40.120Z,11.75
2018-05-16T06:56:07.589Z,12.30
2018-05-16T06:58:35.815Z,11.50
2018-05-16T07:01:04.048Z,11.77
2018-05-16T07:03:31.504Z,12.70
2018-05-16T07:05:58.957Z,13.20
2018-05-16T07:08:26.424Z,13.35
2018-05-16T07:10:53.894Z,13.35
2018-05-16T07:13:21.346Z,12.30
2018-05-16T07:15:49.568Z,12.73
2018-05-16T07:18:17.043Z,13.02
2018-05-16T07:20:44.497Z,13.85
2018-05-16T07:23:11.983Z,13.88
2018-05-16T07:25:39.435Z,13.23
2018-05-16T07:28:06.923Z,13.60
2018-05-16T07:30:34.379Z,13.60
2018-05-16T07:33:01.859Z,14.10
2018-05-16T07:35:29.335Z,14.00
2018-05-16T07:37:56.793Z,14.32
2018-05-16T07:40:24.260Z,14.90
2018-05-16T07:42:51.726Z,14.95
2018-05-16T07:45:19.207Z,15.20
2018-05-16T07:47:46.673Z,15.15
2018-05-16T07:50:14.156Z,14.55
2018-05-16T07:52:41.623Z,14.20
2018-05-16T07:55:09.098Z,15.35
2018-05-16T07:57:36.571Z,14.40
2018-05-16T08:00:04.038Z,15.13
2018-05-16T08:02:31.515Z,13.60
2018-05-16T08:04:58.976Z,13.82
2018-05-16T08:07:26.439Z,14.00
2018-05-16T08:09:53.930Z,14.60
2018-05-16T08:12:21.433Z,14.47
2018-05-16T08:14:48.898Z,14.70
2018-05-16T08:17:17.138Z,15.30
2018-05-16T08:19:44.596Z,14.18
2018-05-16T08:22:12.060Z,14.23
2018-05-16T08:24:39.602Z,15.10
2018-05-16T08:27:06.996Z,15.20
2018-05-16T08:29:34.449Z,15.90
2018-05-16T08:32:01.913Z,13.90
2018-05-16T08:34:30.151Z,14.57
2018-05-16T08:36:57.626Z,15.15
2018-05-16T08:39:25.095Z,16.53
2018-05-16T08:41:52.565Z,17.12
2018-05-16T08:44:20.026Z,17.67
2018-05-16T08:46:47.483Z,17.98
2018-05-16T08:49:14.961Z,18.00
2018-05-16T08:51:42.407Z,17.80
2018-05-16T08:54:09.877Z,18.10
2018-05-16T08:56:37.339Z,19.23
2018-05-16T08:59:04.819Z,18.00
2018-05-16T09:01:32.286Z,18.47
2018-05-16T09:03:59.741Z,18.33
2018-05-16T09:06:27.208Z,17.58
2018-05-16T09:08:54.674Z,17.10
2018-05-16T09:11:22.152Z,17.23
2018-05-16T09:13:49.598Z,17.42
2018-05-16T09:16:17.821Z,15.98
2018-05-16T09:18:45.294Z,15.50
2018-05-16T09:21:12.776Z,15.80
2018-05-16T09:23:40.228Z,16.55
2018-05-16T09:26:07.677Z,16.20
2018-05-16T09:28:35.135Z,15.10
2018-05-16T09:31:03.374Z,14.87
2018-05-16T09:33:30.849Z,14.77
2018-05-16T09:35:58.325Z,13.90
2018-05-16T09:38:25.815Z,13.20
2018-05-16T09:40:53.268Z,13.05
2018-05-16T09:43:20.754Z,11.50
2018-05-16T09:45:48.362Z,11.20
2018-05-16T09:48:15.697Z,12.63
2018-05-16T09:50:43.183Z,12.13
2018-05-16T09:53:11.412Z,12.05
2018-05-16T09:55:38.883Z,12.20
2018-05-16T09:58:06.378Z,11.20
2018-05-16T10:00:33.839Z,10.40
2018-05-16T10:03:01.364Z,10.90
2018-05-16T10:05:28.826Z,11.15
2018-05-16T10:07:56.303Z,11.37
2018-05-16T10:10:23.751Z,11.57
2018-05-16T10:12:51.995Z,10.60
2018-05-16T10:15:20.211Z,9.63
2018-05-16T10:17:47.702Z,10.40
2018-05-16T10:20:15.968Z,9.80
2018-05-16T10:22:43.400Z,9.77
2018-05-16T10:25:10.888Z,10.07
2018-05-16T10:27:38.363Z,10.57
2018-05-16T10:30:05.831Z,10.60
2018-05-16T10:32:33.298Z,10.00
2018-05-16T10:35:00.821Z,11.00
2018-05-16T10:37:28.271Z,11.15
2018-05-16T10:39:56.512Z,9.98
2018-05-16T10:42:23.973Z,10.80
2018-05-16T10:44:51.454Z,11.30
2018-05-16T10:47:18.923Z,11.27
2018-05-16T10:49:46.384Z,10.50
2018-05-16T10:52:13.913Z,11.40
2018-05-16T10:54:41.337Z,11.15
2018-05-16T10:57:08.822Z,11.50
2018-05-16T10:59:36.286Z,11.10
2018-05-16T11:02:03.774Z,10.67
2018-05-16T11:04:31.268Z,11.50
2018-05-16T11:06:59.507Z,10.97
2018-05-16T11:09:26.985Z,10.27
2018-05-16T11:11:55.225Z,10.70
2018-05-16T11:14:22.691Z,10.00
2018-05-16T11:16:50.161Z,10.18
2018-05-16T11:19:17.627Z,9.82
2018-05-16T11:21:45.123Z,9.40
2018-05-16T11:24:12.598Z,9.60
2018-05-16T11:26:40.065Z,8.32
2018-05-16T11:29:07.529Z,7.60
2018-05-16T11:31:34.999Z,8.18
2018-05-16T11:34:02.449Z,7.80
2018-05-16T11:36:30.002Z,7.70
2018-05-16T11:38:57.391Z,7.95
2018-05-16T11:41:24.869Z,7.22
2018-05-16T11:43:52.324Z,7.80
2018-05-16T11:46:19.801Z,7.37
2018-05-16T11:48:47.320Z,7.60
2018-05-16T11:51:14.740Z,7.57
2018-05-16T11:53:42.211Z,6.55
2018-05-16T11:56:09.663Z,7.43
2018-05-16T11:58:37.144Z,8.45
2018-05-16T12:01:04.619Z,7.62
2018-05-16T12:03:32.080Z,8.25
2018-05-16T12:05:59.528Z,8.80
2018-05-16T12:08:27.756Z,8.60
2018-05-16T12:10:55.216Z,7.00
2018-05-16T12:13:22.679Z,7.07
2018-05-16T12:15:50.134Z,6.80
2018-05-16T12:18:18.355Z,6.85
2018-05-16T12:20:45.831Z,6.47
2018-05-16T12:23:13.290Z,7.07
2018-05-16T12:25:40.774Z,7.18
2018-05-16T12:28:08.227Z,7.10
2018-05-16T12:30:35.695Z,7.65
2018-05-16T12:33:03.156Z,8.10
2018-05-16T12:35:30.617Z,7.93
2018-05-16T12:37:58.067Z,7.70
2018-05-16T12:40:25.530Z,7.93
2018-05-16T12:43:04.863Z,8.70
2018-05-16T12:45:32.324Z,9.55
2018-05-16T12:47:59.799Z,9.50
2018-05-16T12:50:27.261Z,8.88
2018-05-16T12:52:54.744Z,8.20
2018-05-16T12:55:22.196Z,8.70
2018-05-16T12:57:49.649Z,8.85
2018-05-16T13:00:17.122Z,9.52
2018-05-16T13:02:44.592Z,9.23
2018-05-16T13:05:12.081Z,9.43
2018-05-16T13:07:39.563Z,9.20
2018-05-16T13:10:07.025Z,9.70
2018-05-16T13:12:34.503Z,10.10
2018-05-16T13:15:01.958Z,11.20
2018-05-16T13:17:29.425Z,11.12
2018-05-16T13:19:56.876Z,12.70
2018-05-16T13:22:24.348Z,13.10
2018-05-16T13:24:51.800Z,12.63
2018-05-16T13:27:19.275Z,12.17
2018-05-16T13:29:46.758Z,13.50
2018-05-16T13:32:14.239Z,13.50
2018-05-16T13:34:41.707Z,13.50
2018-05-16T13:37:09.186Z,14.13
2018-05-16T13:39:36.642Z,15.30
2018-05-16T13:42:04.109Z,15.23
2018-05-16T13:44:31.572Z,13.75
2018-05-16T13:46:59.054Z,15.00
2018-05-16T13:49:26.586Z,16.10
2018-05-16T13:51:54.040Z,15.80
2018-05-16T13:54:21.531Z,15.68
2018-05-16T13:56:48.985Z,16.52
2018-05-16T13:59:17.217Z,15.83
2018-05-16T14:01:44.711Z,17.43
2018-05-16T14:04:12.197Z,16.10
2018-05-16T14:06:40.435Z,17.35
2018-05-16T14:09:07.908Z,17.60
2018-05-16T14:11:35.367Z,17.70
2018-05-16T14:14:02.848Z,17.10
2018-05-16T14:16:30.319Z,17.15
2018-05-16T14:18:57.783Z,16.90
2018-05-16T14:21:25.271Z,17.55
2018-05-16T14:23:52.767Z,17.00
2018-05-16T14:26:20.203Z,18.33
2018-05-16T14:28:47.684Z,17.15
2018-05-16T14:31:15.157Z,16.50
2018-05-16T14:33:42.684Z,19.60
2018-05-16T14:36:10.195Z,18.00
2018-05-16T14:38:37.610Z,18.27
2018-05-16T14:41:05.072Z,16.52
2018-05-16T14:43:33.307Z,15.93
2018-05-16T14:46:00.793Z,16.77
2018-05-16T14:48:28.260Z,16.90
2018-05-16T14:50:55.732Z,15.87
2018-05-16T14:53:23.210Z,15.30
2018-05-16T14:55:50.685Z,15.60
2018-05-16T14:58:18.151Z,15.30
2018-05-16T15:00:45.643Z,16.30
2018-05-16T15:03:13.871Z,16.40
2018-05-16T15:05:41.326Z,15.93
2018-05-16T15:08:08.833Z,17.30
2018-05-16T15:10:36.286Z,15.65
2018-05-16T15:13:03.759Z,15.37
2018-05-16T15:15:31.224Z,14.95
2018-05-16T15:17:58.761Z,11.27
2018-05-16T15:20:26.241Z,9.30
2018-05-16T15:22:53.706Z,9.25
2018-05-16T15:25:21.183Z,8.80
2018-05-16T15:27:48.632Z,8.40
2018-05-16T15:30:16.103Z,8.85
2018-05-16T15:32:45.577Z,9.70
2018-05-16T15:35:13.046Z,8.30
2018-05-16T15:37:40.519Z,8.10
2018-05-16T15:40:08.011Z,8.75
2018-05-16T15:42:36.260Z,7.90
2018-05-16T15:45:03.949Z,7.43
2018-05-16T15:47:31.424Z,7.97
2018-05-16T15:49:58.868Z,8.10
2018-05-16T15:52:26.337Z,10.43
2018-05-16T15:54:53.793Z,6.45
2018-05-16T15:57:21.252Z,4.40
2018-05-16T15:59:48.850Z,4.35
2018-05-16T16:02:16.232Z,7.10
2018-05-16T16:04:44.488Z,11.98
2018-05-16T16:07:11.949Z,11.00
2018-05-16T16:09:39.428Z,9.90
2018-05-16T16:12:06.880Z,14.35
2018-05-16T16:14:34.372Z,31.40
2018-05-16T16:17:01.857Z,7.90
2018-05-16T16:19:29.292Z,5.25
2018-05-16T16:21:56.749Z,5.75
2018-05-16T16:24:24.979Z,7.00
2018-05-16T16:26:52.453Z,5.60
2018-05-16T16:29:19.909Z,5.30
2018-05-16T16:31:47.371Z,6.50
2018-05-16T16:34:14.840Z,5.50
2018-05-16T16:36:42.311Z,6.20
2018-05-16T16:39:09.813Z,5.05
2018-05-16T16:41:37.267Z,5.10
2018-05-16T16:44:05.498Z,4.70
2018-05-16T16:46:34.017Z,4.43
2018-05-16T16:49:01.512Z,15.80
2018-05-16T16:51:28.971Z,6.25
2018-05-16T16:53:56.442Z,8.60
2018-05-16T16:56:23.918Z,5.97
2018-05-16T16:58:51.366Z,4.70
2018-05-16T17:01:18.820Z,5.45
2018-05-16T17:03:47.057Z,4.97
2018-05-16T17:06:14.535Z,5.60
2018-05-16T17:08:42.005Z,5.90
2018-05-16T17:11:09.451Z,5.20
2018-05-16T17:13:37.183Z,5.35
2018-05-16T17:16:05.444Z,5.12
2018-05-16T17:18:32.893Z,6.87
2018-05-16T17:21:00.379Z,7.53
2018-05-16T17:23:27.852Z,7.90
2018-05-16T17:25:55.318Z,8.50
2018-05-16T17:28:22.793Z,8.25
2018-05-16T17:30:50.236Z,7.27
2018-05-16T17:33:17.734Z,6.30
2018-05-16T17:35:45.207Z,6.83
2018-05-16T17:38:12.692Z,6.22
2018-05-16T17:40:40.949Z,6.80
2018-05-16T17:43:08.439Z,6.35
2018-05-16T17:45:35.907Z,6.20
2018-05-16T17:48:03.386Z,6.10
2018-05-16T17:50:30.863Z,5.90
2018-05-16T17:52:58.337Z,5.62
2018-05-16T17:55:26.601Z,5.70
2018-05-16T17:57:54.049Z,5.50
2018-05-16T18:00:21.519Z,5.80
2018-05-16T18:02:48.980Z,5.90
2018-05-16T18:05:16.446Z,6.70
2018-05-16T18:07:43.923Z,6.50
2018-05-16T18:10:11.391Z,6.68
2018-05-16T18:12:38.859Z,5.97
2018-05-16T18:15:18.933Z,6.32
2018-05-16T18:17:46.391Z,6.90
2018-05-16T18:20:13.859Z,5.87
2018-05-16T18:22:41.316Z,7.10
2018-05-16T18:25:08.765Z,6.53
2018-05-16T18:27:36.245Z,6.68
2018-05-16T18:30:03.715Z,6.93
2018-05-16T18:32:31.203Z,7.80
2018-05-16T18:34:58.674Z,6.53
2018-05-16T18:37:26.138Z,6.32
2018-05-16T18:39:53.770Z,6.93
2018-05-16T18:42:21.094Z,6.25
2018-05-16T18:44:49.329Z,8.25
2018-05-16T18:47:17.569Z,13.27
2018-05-16T18:49:45.065Z,10.95
2018-05-16T18:52:12.527Z,10.60
2018-05-16T18:54:39.987Z,6.30
2018-05-16T18:57:07.486Z,6.32
2018-05-16T18:59:34.955Z,6.47
2018-05-16T19:02:02.451Z,6.70
2018-05-16T19:04:30.656Z,6.05
2018-05-16T19:06:58.115Z,6.70
2018-05-16T19:09:25.590Z,6.10
2018-05-16T19:11:53.074Z,7.07
2018-05-16T19:14:20.791Z,6.70
2018-05-16T19:16:48.250Z,7.37
2018-05-16T19:19:15.765Z,6.03
2018-05-16T19:21:43.230Z,6.47
2018-05-16T19:24:10.708Z,5.97
2018-05-16T19:26:38.196Z,6.40
2018-05-16T19:29:05.690Z,7.17
2018-05-16T19:31:33.137Z,7.87
2018-05-16T19:34:01.209Z,7.00
2018-05-16T19:36:28.660Z,8.00
2018-05-16T19:38:56.992Z,7.37
2018-05-16T19:41:25.204Z,8.07
2018-05-16T19:43:52.657Z,8.20
2018-05-16T19:46:20.162Z,7.93
2018-05-16T19:48:47.631Z,16.48
2018-05-16T19:51:15.215Z,12.30
2018-05-16T19:53:43.463Z,8.90
2018-05-16T19:56:10.931Z,8.70
2018-05-16T19:58:38.523Z,8.10
2018-05-16T20:01:05.971Z,9.32
2018-05-16T20:03:33.420Z,11.97
2018-05-16T20:06:00.890Z,9.98
2018-05-16T20:08:28.357Z,8.90
2018-05-16T20:10:55.861Z,9.50
2018-05-16T20:13:23.326Z,10.30
2018-05-16T20:15:50.776Z,10.38
2018-05-16T20:18:18.267Z,10.70
2018-05-16T20:20:45.736Z,13.90
2018-05-16T20:23:13.284Z,13.55
2018-05-16T20:25:40.744Z,20.35
2018-05-16T20:28:08.216Z,10.55
2018-05-16T20:30:35.686Z,11.52
2018-05-16T20:33:03.158Z,10.70
2018-05-16T20:35:30.620Z,11.18
2018-05-16T20:37:58.115Z,10.40
2018-05-16T20:40:25.578Z,11.10
2018-05-16T20:42:53.052Z,10.45
2018-05-16T20:45:20.718Z,12.80
2018-05-16T20:47:48.102Z,11.00
2018-05-16T20:50:15.605Z,10.50
2018-05-16T20:52:43.837Z,10.45
2018-05-16T20:55:11.310Z,9.65
2018-05-16T20:57:38.795Z,12.45
2018-05-16T21:00:06.253Z,20.35
2018-05-16T21:02:33.734Z,18.55
2018-05-16T21:05:01.226Z,12.57
2018-05-16T21:07:28.707Z,9.27
2018-05-16T21:09:57.324Z,8.30
2018-05-16T21:12:24.807Z,7.00
2018-05-16T21:14:52.268Z,6.78
2018-05-16T21:17:19.774Z,6.70
2018-05-16T21:19:47.306Z,7.13
2018-05-16T21:22:14.768Z,7.28
2018-05-16T21:24:42.359Z,6.68
2018-05-16T21:27:09.805Z,6.60
2018-05-16T21:29:38.045Z,7.47
2018-05-16T21:32:06.603Z,6.97
2018-05-16T21:34:34.119Z,7.10
2018-05-16T21:37:01.638Z,7.80
2018-05-16T21:39:29.863Z,7.37
2018-05-16T21:41:57.330Z,8.18
2018-05-16T21:44:24.796Z,7.60
2018-05-16T21:46:52.249Z,9.13
2018-05-16T21:49:19.758Z,7.62
2018-05-16T21:51:47.320Z,7.30
2018-05-16T21:54:16.355Z,7.20
2018-05-16T21:56:44.575Z,6.40
2018-05-16T21:59:12.082Z,6.72
2018-05-16T22:01:39.571Z,6.78
2018-05-16T22:04:07.046Z,7.40
2018-05-16T22:06:34.510Z,6.10
2018-05-16T22:09:02.071Z,6.10
2018-05-16T22:11:29.619Z,6.35
2018-05-16T22:13:57.127Z,6.00
2018-05-16T22:16:24.582Z,6.70
2018-05-16T22:18:52.045Z,6.40
2018-05-16T22:21:19.519Z,6.32
2018-05-16T22:23:47.087Z,6.00
2018-05-16T22:26:14.548Z,6.00
2018-05-16T22:28:42.037Z,5.50
2018-05-16T22:31:15.394Z,5.45
2018-05-16T22:33:48.644Z,5.43
2018-05-16T22:36:21.915Z,5.70
2018-05-16T22:38:55.126Z,5.78
2018-05-16T22:41:28.458Z,5.70
2018-05-16T22:44:01.772Z,5.35
2018-05-16T22:46:29.253Z,5.78
2018-05-16T22:48:56.827Z,5.95
2018-05-16T22:51:24.298Z,5.50
2018-05-16T22:53:51.770Z,6.20
2018-05-16T22:56:19.226Z,6.00
2018-05-16T22:58:46.683Z,5.22
2018-05-16T23:01:14.163Z,6.00
2018-05-16T23:03:41.634Z,6.22
2018-05-16T23:06:09.108Z,5.60
2018-05-16T23:08:36.570Z,5.07
2018-05-16T23:11:04.024Z,6.50
2018-05-16T23:13:31.503Z,6.32
2018-05-16T23:15:59.157Z,6.10
2018-05-16T23:18:26.675Z,6.43
2018-05-16T23:20:54.898Z,5.75
2018-05-16T23:23:22.352Z,6.55
2018-05-16T23:25:50.579Z,6.00
2018-05-16T23:28:18.035Z,5.43
2018-05-16T23:30:45.557Z,5.20
2018-05-16T23:33:12.962Z,5.50
2018-05-16T23:35:40.421Z,5.50
2018-05-16T23:38:07.881Z,5.22
2018-05-16T23:40:36.114Z,5.57
2018-05-16T23:43:03.592Z,4.65
2018-05-16T23:45:31.055Z,4.47
2018-05-16T23:47:58.527Z,5.35
2018-05-16T23:50:26.007Z,4.80
2018-05-16T23:52:53.478Z,5.62
2018-05-16T23:55:21.055Z,5.57
2018-05-16T23:57:48.622Z,5.20
